Flight Briefing for CPX363

Departure Arrival
Seattle-Tacoma International Airport (KSEA)
Click to view FAA NOTAMS
Fort Worth Alliance Airport (KAFW)
Click to view FAA NOTAMS
Departure Time Arrival Time
N/A N/A
Aircraft Distance
B767-300BDSF 1428nm
Departure METAR Arrival METAR
KSEA 271053Z 14003KT 10SM FEW100 13/11 A2993 RMK AO2 SLP142 T01330106 KAFW 271107Z 18018G24KT 9SM BKN024 BKN190 OVC300 23/19 A2992 RMK AO2 T02330189
Suggested Route
SUMMA1 SUMMA J54 BKE J54 BOI J15 JNC ALS PNH MDANO WESAT2


View recent IFR Routes data
Notes



Charts and Procedures

Charts for KSEA
No chart available
Charts for KAFW
No chart available

Windy.com Weather Map